Time;durP1;ratioP1;P1;durP2;ratioP2;P2;SDS_P1;SDS_P2;PMS_P1;PMS_P2;Temp;Humidity;BMP_temperature;BMP_pressure;BME280_temperature;BME280_humidity;BME280_pressure;Samples;Min_cycle;Max_cycle;Signal;HPM_P1;HPM_P2
2024/03/08 00:00:09;;;;;;;59.33;22.48;;;;;;;5.26;100.00;101572.81;5251217;28;20055;-74
2024/03/08 00:02:40;;;;;;;60.53;22.52;;;;;;;5.27;100.00;101570.06;5253705;28;20115;-74
2024/03/08 00:05:10;;;;;;;60.22;23.63;;;;;;;5.30;100.00;101568.97;5253018;28;20027;-74
2024/03/08 00:07:42;;;;;;;58.65;21.85;;;;;;;5.32;100.00;101567.03;5248602;28;20036;-75
2024/03/08 00:10:13;;;;;;;52.95;21.92;;;;;;;5.34;100.00;101563.31;5251296;28;20481;-74
2024/03/08 00:12:44;;;;;;;59.13;22.27;;;;;;;5.30;100.00;101561.00;5250901;28;20058;-74
2024/03/08 00:15:17;;;;;;;57.88;22.77;;;;;;;5.31;100.00;101557.38;5257767;28;20042;-74
2024/03/08 00:17:47;;;;;;;54.08;22.33;;;;;;;5.35;100.00;101556.19;5251154;28;20036;-74
2024/03/08 00:20:18;;;;;;;57.30;20.20;;;;;;;5.32;100.00;101556.41;5255380;28;20548;-74
2024/03/08 00:22:48;;;;;;;60.55;22.10;;;;;;;5.30;100.00;101553.00;5252336;28;20401;-74
2024/03/08 00:25:19;;;;;;;56.55;24.52;;;;;;;5.25;100.00;101555.16;5252820;28;20020;-74
2024/03/08 00:27:49;;;;;;;54.53;21.58;;;;;;;5.23;100.00;101555.28;5268053;28;20074;-74
2024/03/08 00:30:20;;;;;;;55.17;21.33;;;;;;;5.25;100.00;101548.03;5249472;28;20031;-74
2024/03/08 00:32:51;;;;;;;60.08;22.25;;;;;;;5.21;100.00;101549.22;5255730;28;20099;-74
2024/03/08 00:35:22;;;;;;;56.40;21.42;;;;;;;5.17;100.00;101545.97;5255069;28;20107;-74
2024/03/08 00:37:56;;;;;;;56.72;20.42;;;;;;;5.13;100.00;101533.00;5251367;28;20094;-74
2024/03/08 00:40:27;;;;;;;60.55;23.05;;;;;;;5.19;100.00;101549.34;5251226;28;20477;-74
2024/03/08 00:42:57;;;;;;;58.42;22.77;;;;;;;5.20;100.00;101543.06;5253482;28;20028;-74
2024/03/08 00:45:28;;;;;;;61.33;23.50;;;;;;;5.16;100.00;101546.06;5251177;28;20366;-74
2024/03/08 00:47:58;;;;;;;55.33;21.42;;;;;;;5.15;100.00;101544.38;5251983;28;20038;-74
2024/03/08 00:50:29;;;;;;;55.67;21.80;;;;;;;5.08;100.00;101543.13;5252878;28;20027;-74
2024/03/08 00:52:59;;;;;;;54.50;21.63;;;;;;;5.11;100.00;101543.72;5247926;28;20031;-74
2024/03/08 00:55:30;;;;;;;54.92;22.55;;;;;;;5.13;100.00;101540.97;5254077;28;20027;-74
2024/03/08 00:58:00;;;;;;;51.03;22.17;;;;;;;5.07;100.00;101542.28;5250434;28;20334;-74
2024/03/08 01:00:31;;;;;;;61.72;22.63;;;;;;;5.06;100.00;101539.72;5250136;28;20118;-74
2024/03/08 01:03:03;;;;;;;60.95;22.38;;;;;;;4.99;100.00;101531.34;5253484;28;20081;-74
2024/03/08 01:05:35;;;;;;;53.25;21.40;;;;;;;5.04;100.00;101533.69;5246728;28;20037;-74
2024/03/08 01:08:05;;;;;;;54.75;22.52;;;;;;;4.96;100.00;101528.91;5252929;28;20040;-74
2024/03/08 01:10:36;;;;;;;53.28;22.33;;;;;;;5.00;100.00;101524.22;5248302;28;20726;-74
2024/03/08 01:13:07;;;;;;;56.33;21.58;;;;;;;4.93;100.00;101522.03;5252918;28;20024;-74
2024/03/08 01:15:41;;;;;;;56.38;21.88;;;;;;;4.91;100.00;101526.59;5252513;28;20051;-75
2024/03/08 01:18:12;;;;;;;56.33;21.58;;;;;;;4.88;100.00;101529.50;5243187;28;20028;-74
2024/03/08 01:20:42;;;;;;;52.00;22.60;;;;;;;4.90;100.00;101518.75;5250899;28;20029;-74
2024/03/08 01:23:13;;;;;;;53.63;21.63;;;;;;;4.87;100.00;101513.63;5252579;28;20032;-74
2024/03/08 01:25:44;;;;;;;50.10;21.08;;;;;;;4.89;100.00;101515.22;5253261;28;20371;-74
2024/03/08 01:28:14;;;;;;;46.00;20.00;;;;;;;4.87;100.00;101501.22;5250332;28;20046;-74
2024/03/08 01:30:45;;;;;;;46.75;21.00;;;;;;;4.84;100.00;101505.91;5254178;28;20107;-74
2024/03/08 01:33:15;;;;;;;49.60;21.25;;;;;;;4.78;100.00;101501.91;5253809;28;20401;-74
2024/03/08 01:35:46;;;;;;;55.92;22.02;;;;;;;4.77;100.00;101500.19;5249142;28;20466;-74
2024/03/08 01:38:16;;;;;;;59.25;22.40;;;;;;;4.70;100.00;101501.59;5254100;28;20031;-74
2024/03/08 01:40:48;;;;;;;44.63;21.25;;;;;;;4.68;100.00;101498.22;5246527;28;20033;-74
2024/03/08 01:43:21;;;;;;;48.25;21.30;;;;;;;4.65;100.00;101496.63;5251596;28;20024;-74
2024/03/08 01:45:52;;;;;;;51.15;22.80;;;;;;;4.60;100.00;101493.44;5254533;28;20052;-74
2024/03/08 01:48:23;;;;;;;49.17;21.75;;;;;;;4.56;100.00;101489.31;5251941;28;20024;-74
2024/03/08 01:50:55;;;;;;;49.40;22.02;;;;;;;4.54;100.00;101491.25;5252859;28;20017;-74
2024/03/08 01:53:27;;;;;;;49.45;21.52;;;;;;;4.54;100.00;101490.38;5252652;28;20065;-74
2024/03/08 01:55:58;;;;;;;49.38;21.30;;;;;;;4.55;100.00;101482.31;5263246;28;20017;-74
2024/03/08 01:58:30;;;;;;;48.97;20.73;;;;;;;4.55;100.00;101478.78;5254145;28;20028;-74
2024/03/08 02:01:03;;;;;;;53.30;22.60;;;;;;;4.55;100.00;101476.97;5254378;28;20024;-74
2024/03/08 02:03:33;;;;;;;47.50;21.30;;;;;;;4.54;100.00;101471.78;5252280;28;20505;-74
2024/03/08 02:06:05;;;;;;;49.75;22.10;;;;;;;4.48;100.00;101472.25;5251670;28;20024;-74
2024/03/08 02:08:36;;;;;;;52.42;21.75;;;;;;;4.46;100.00;101463.50;5252299;28;20032;-74
2024/03/08 02:11:07;;;;;;;54.00;23.05;;;;;;;4.43;100.00;101461.09;5253730;28;20526;-74
2024/03/08 02:13:37;;;;;;;56.67;24.58;;;;;;;4.38;100.00;101459.63;5252926;28;20012;-74
2024/03/08 02:16:08;;;;;;;46.53;20.60;;;;;;;4.35;100.00;101451.03;5259778;28;20020;-74
2024/03/08 02:18:39;;;;;;;48.53;21.83;;;;;;;4.31;100.00;101453.03;5250288;28;20017;-74
2024/03/08 02:21:10;;;;;;;46.70;20.92;;;;;;;4.33;100.00;101453.78;5257693;28;20020;-73
2024/03/08 02:23:40;;;;;;;46.45;21.52;;;;;;;4.31;100.00;101454.84;5248250;28;20024;-74
2024/03/08 02:26:11;;;;;;;48.55;22.70;;;;;;;4.27;100.00;101446.28;5254004;28;20099;-74
2024/03/08 02:28:43;;;;;;;49.17;21.27;;;;;;;4.29;100.00;101444.34;5268212;28;20470;-74
2024/03/08 02:31:14;;;;;;;50.88;21.92;;;;;;;4.31;100.00;101439.75;5255521;28;20408;-74
2024/03/08 02:33:47;;;;;;;51.78;23.98;;;;;;;4.29;100.00;101440.84;5251810;28;20029;-74
2024/03/08 02:36:17;;;;;;;48.30;21.42;;;;;;;4.28;100.00;101442.66;5253879;28;20129;-74
2024/03/08 02:38:48;;;;;;;51.15;23.70;;;;;;;4.27;100.00;101435.66;5251267;28;20024;-74
2024/03/08 02:41:18;;;;;;;55.33;23.50;;;;;;;4.25;100.00;101428.75;5257987;28;20497;-74
2024/03/08 02:43:50;;;;;;;52.63;21.77;;;;;;;4.22;100.00;101424.50;5249337;28;20497;-74
2024/03/08 02:46:20;;;;;;;52.00;22.70;;;;;;;4.20;100.00;101422.91;5255720;28;20027;-74
2024/03/08 02:48:51;;;;;;;47.78;21.75;;;;;;;4.16;100.00;101422.28;5252393;28;20107;-74
2024/03/08 02:51:22;;;;;;;59.33;22.65;;;;;;;4.15;100.00;101425.91;5253782;28;20436;-74
2024/03/08 02:53:53;;;;;;;49.72;22.17;;;;;;;4.14;100.00;101416.25;5255195;28;20020;-74
2024/03/08 02:56:24;;;;;;;55.47;24.10;;;;;;;4.11;100.00;101414.63;5251015;28;20649;-74
2024/03/08 02:58:54;;;;;;;52.22;23.13;;;;;;;4.14;100.00;101416.25;5251788;28;20043;-74
2024/03/08 03:01:26;;;;;;;47.13;23.20;;;;;;;4.16;100.00;101415.16;5253700;28;20099;-74
2024/03/08 03:03:58;;;;;;;49.60;21.45;;;;;;;4.16;100.00;101415.16;5253010;28;20378;-74
2024/03/08 03:06:38;;;;;;;52.05;23.70;;;;;;;4.13;100.00;101418.06;5253160;28;20024;-74
2024/03/08 03:09:10;;;;;;;47.13;21.10;;;;;;;4.10;100.00;101404.13;5250537;28;20094;-74
2024/03/08 03:11:44;;;;;;;48.22;22.73;;;;;;;4.01;100.00;101404.78;5251983;28;20031;-74
2024/03/08 03:14:16;;;;;;;49.20;21.23;;;;;;;4.04;100.00;101404.59;5253692;28;20024;-74
2024/03/08 03:16:46;;;;;;;46.75;22.30;;;;;;;4.01;100.00;101395.03;5251042;28;20028;-73
2024/03/08 03:19:18;;;;;;;47.25;21.30;;;;;;;4.05;100.00;101393.00;5251724;28;20038;-74
2024/03/08 03:21:52;;;;;;;55.67;24.40;;;;;;;4.07;100.00;101402.56;5253220;28;20078;-73
2024/03/08 03:24:23;;;;;;;57.92;23.90;;;;;;;4.06;100.00;101392.88;5253740;28;20024;-74
2024/03/08 03:26:54;;;;;;;47.95;22.10;;;;;;;4.08;100.00;101385.66;5250496;28;20055;-74
2024/03/08 03:29:25;;;;;;;53.35;23.52;;;;;;;4.08;100.00;101382.16;5253069;28;20077;-74
2024/03/08 03:31:56;;;;;;;55.00;23.58;;;;;;;4.06;100.00;101378.75;5250466;28;20032;-73
2024/03/08 03:34:28;;;;;;;48.40;22.05;;;;;;;4.05;100.00;101383.22;5253127;28;20026;-73
2024/03/08 03:37:00;;;;;;;50.20;22.70;;;;;;;3.98;100.00;101371.38;5270409;28;20028;-73
2024/03/08 03:39:31;;;;;;;51.78;22.83;;;;;;;3.98;100.00;101370.53;5250466;28;20020;-73
2024/03/08 03:42:02;;;;;;;55.17;22.33;;;;;;;3.99;100.00;101372.22;5254480;28;20482;-74
2024/03/08 03:44:33;;;;;;;46.55;20.52;;;;;;;4.04;100.00;101372.72;5250038;28;20627;-74
2024/03/08 03:47:03;;;;;;;49.55;22.35;;;;;;;4.02;100.00;101367.53;5253112;28;20024;-74
2024/03/08 03:49:34;;;;;;;53.10;22.33;;;;;;;4.04;100.00;101370.06;5251528;28;20442;-73
2024/03/08 03:52:05;;;;;;;55.03;23.35;;;;;;;3.98;100.00;101367.88;5252804;28;20016;-73
2024/03/08 03:54:36;;;;;;;45.75;20.83;;;;;;;3.99;100.00;101364.25;5252976;28;20024;-73
2024/03/08 03:57:07;;;;;;;51.38;22.05;;;;;;;4.00;100.00;101355.31;5251806;28;20050;-74
2024/03/08 03:59:38;;;;;;;48.25;21.55;;;;;;;3.92;100.00;101355.88;5248863;28;20038;-74
2024/03/08 04:02:08;;;;;;;51.03;20.70;;;;;;;3.94;100.00;101353.97;5255098;28;20024;-74
2024/03/08 04:04:40;;;;;;;55.15;21.60;;;;;;;3.97;100.00;101347.59;5248924;28;20434;-74
2024/03/08 04:07:10;;;;;;;48.17;22.10;;;;;;;3.98;100.00;101339.50;5255174;28;20027;-74
2024/03/08 04:09:41;;;;;;;51.33;21.50;;;;;;;3.97;100.00;101343.13;5245679;28;20020;-73
2024/03/08 04:12:11;;;;;;;46.97;21.58;;;;;;;3.97;100.00;101342.28;5254296;28;20020;-74
2024/03/08 04:14:42;;;;;;;51.40;23.70;;;;;;;3.97;100.00;101334.31;5251603;28;20021;-74
2024/03/08 04:17:13;;;;;;;55.33;23.33;;;;;;;3.95;100.00;101330.91;5253331;28;20024;-74
2024/03/08 04:19:43;;;;;;;59.42;23.00;;;;;;;3.92;100.00;101333.81;5243407;28;20497;-74
2024/03/08 04:22:14;;;;;;;53.83;23.13;;;;;;;3.91;100.00;101335.59;5250084;28;20036;-74
2024/03/08 04:24:45;;;;;;;53.20;22.40;;;;;;;3.82;100.00;101330.97;5267956;28;20118;-74
2024/03/08 04:27:16;;;;;;;52.92;22.50;;;;;;;3.86;100.00;101335.06;5253714;28;20036;-74
2024/03/08 04:29:46;;;;;;;54.50;23.67;;;;;;;3.81;100.00;101330.09;5250860;28;20029;-74
2024/03/08 04:32:17;;;;;;;52.35;22.10;;;;;;;3.82;100.00;101336.28;5252028;28;20020;-74
2024/03/08 04:34:49;;;;;;;44.15;21.15;;;;;;;3.82;100.00;101328.31;5250592;28;20692;-73
2024/03/08 04:37:21;;;;;;;54.40;21.23;;;;;;;3.76;100.00;101328.72;5247661;28;20024;-73
2024/03/08 04:39:52;;;;;;;51.00;21.63;;;;;;;3.78;100.00;101329.50;5249540;28;20037;-73
2024/03/08 04:42:23;;;;;;;57.60;22.15;;;;;;;3.70;100.00;101330.03;5245712;28;20029;-73
2024/03/08 04:44:54;;;;;;;52.08;22.88;;;;;;;3.71;100.00;101322.91;5244772;28;20024;-74
2024/03/08 04:47:25;;;;;;;51.63;22.02;;;;;;;3.68;100.00;101326.66;5258162;28;20081;-73
2024/03/08 04:49:56;;;;;;;49.88;21.70;;;;;;;3.65;100.00;101321.56;5240707;28;20027;-73
2024/03/08 04:52:27;;;;;;;56.08;23.17;;;;;;;3.64;100.00;101322.50;5243114;28;20667;-74
2024/03/08 04:54:57;;;;;;;51.05;23.15;;;;;;;3.61;100.00;101310.34;5242549;28;20120;-73
2024/03/08 04:57:28;;;;;;;49.75;22.77;;;;;;;3.56;100.00;101309.78;5242655;28;20024;-73
2024/03/08 04:59:59;;;;;;;54.55;23.42;;;;;;;3.59;100.00;101303.44;5242834;28;20082;-73
2024/03/08 05:02:29;;;;;;;48.55;22.15;;;;;;;3.54;100.00;101308.22;5248809;28;20053;-74
2024/03/08 05:05:00;;;;;;;50.50;22.42;;;;;;;3.52;100.00;101308.34;5241390;28;20074;-73
2024/03/08 05:07:31;;;;;;;45.47;21.60;;;;;;;3.49;100.00;101300.56;5240498;28;20736;-73
2024/03/08 05:10:03;;;;;;;55.80;22.50;;;;;;;3.48;100.00;101298.03;5244378;28;20400;-73
2024/03/08 05:12:33;;;;;;;53.75;22.48;;;;;;;3.47;100.00;101297.19;5241355;28;20580;-73
2024/03/08 05:15:07;;;;;;;59.30;22.90;;;;;;;3.43;100.00;101292.22;5242741;28;20069;-74
2024/03/08 05:17:37;;;;;;;56.00;23.90;;;;;;;3.37;100.00;101285.56;5244964;28;20039;-73
2024/03/08 05:20:12;;;;;;;57.10;23.40;;;;;;;3.44;100.00;101288.59;5245740;28;20028;-74
2024/03/08 05:22:42;;;;;;;58.53;23.42;;;;;;;3.45;100.00;101287.66;5247138;28;20024;-74
2024/03/08 05:25:14;;;;;;;51.13;22.90;;;;;;;3.45;100.00;101291.13;5246899;28;20072;-73
2024/03/08 05:27:47;;;;;;;50.63;22.35;;;;;;;3.38;100.00;101282.78;5243645;28;20107;-73
2024/03/08 05:30:17;;;;;;;52.30;21.98;;;;;;;3.35;100.00;101280.34;5246694;28;20041;-73
2024/03/08 05:32:48;;;;;;;61.72;23.73;;;;;;;3.36;100.00;101278.53;5246213;28;20028;-74
2024/03/08 05:35:18;;;;;;;55.97;22.92;;;;;;;3.24;100.00;101274.97;5246952;28;20052;-73
2024/03/08 05:37:49;;;;;;;63.85;24.65;;;;;;;3.31;100.00;101270.94;5250514;28;20367;-73
2024/03/08 05:40:19;;;;;;;54.97;22.27;;;;;;;3.24;100.00;101267.00;5246790;28;20032;-73
2024/03/08 05:42:50;;;;;;;48.00;22.63;;;;;;;3.29;100.00;101272.81;5241595;28;20029;-73
2024/03/08 05:45:20;;;;;;;50.13;22.00;;;;;;;3.25;100.00;101267.84;5247052;28;20059;-73
2024/03/08 05:47:51;;;;;;;57.80;22.23;;;;;;;3.22;100.00;101271.56;5248949;28;20040;-73
2024/03/08 05:50:22;;;;;;;59.63;23.17;;;;;;;3.20;100.00;101262.88;5246893;28;20036;-73
2024/03/08 05:52:54;;;;;;;55.60;23.88;;;;;;;3.20;100.00;101268.16;5252372;28;20529;-73
2024/03/08 05:55:24;;;;;;;50.33;22.23;;;;;;;3.16;100.00;101268.50;5247222;28;20031;-73
2024/03/08 05:57:56;;;;;;;57.67;22.77;;;;;;;3.15;100.00;101259.69;5246584;28;20029;-73
2024/03/08 06:00:27;;;;;;;58.22;22.85;;;;;;;3.13;100.00;101261.63;5248293;28;20103;-73
2024/03/08 06:02:58;;;;;;;58.58;23.95;;;;;;;3.13;100.00;101268.72;5246858;28;20036;-73
2024/03/08 06:05:29;;;;;;;55.63;22.98;;;;;;;3.14;100.00;101263.31;5247273;28;20393;-73
2024/03/08 06:07:59;;;;;;;63.45;23.20;;;;;;;3.09;100.00;101263.63;5252059;28;20036;-73
2024/03/08 06:10:30;;;;;;;52.45;22.05;;;;;;;3.09;100.00;101250.38;5246237;28;20029;-74
2024/03/08 06:13:01;;;;;;;49.35;22.00;;;;;;;3.07;100.00;101243.50;5249516;28;20070;-73
2024/03/08 06:15:32;;;;;;;52.47;22.67;;;;;;;3.05;100.00;101248.03;5247258;28;20020;-73
2024/03/08 06:18:02;;;;;;;55.97;22.02;;;;;;;3.03;100.00;101242.84;5248565;28;20046;-73
2024/03/08 06:20:33;;;;;;;55.10;23.10;;;;;;;3.00;100.00;101248.34;5252457;28;20031;-74
2024/03/08 06:23:03;;;;;;;57.65;22.40;;;;;;;3.01;100.00;101246.56;5247140;28;20462;-74
2024/03/08 06:25:34;;;;;;;53.08;23.38;;;;;;;3.03;100.00;101245.50;5247205;28;20505;-74
2024/03/08 06:28:05;;;;;;;56.13;23.33;;;;;;;3.07;100.00;101240.84;5253475;28;20028;-73
2024/03/08 06:30:36;;;;;;;53.70;22.77;;;;;;;3.11;100.00;101239.66;5245794;28;20028;-73
2024/03/08 06:33:07;;;;;;;54.53;22.88;;;;;;;3.16;100.00;101242.81;5247732;28;20035;-73
2024/03/08 06:35:37;;;;;;;57.92;22.17;;;;;;;3.21;100.00;101238.03;5250386;28;20028;-73
2024/03/08 06:38:08;;;;;;;58.47;24.92;;;;;;;3.26;100.00;101235.94;5246359;28;20497;-73
2024/03/08 06:40:40;;;;;;;56.45;22.50;;;;;;;3.34;100.00;101241.53;5246682;28;20404;-74
2024/03/08 06:43:14;;;;;;;57.97;24.05;;;;;;;3.40;100.00;101236.72;5247329;28;20028;-73
2024/03/08 06:45:48;;;;;;;60.13;23.67;;;;;;;3.49;100.00;101231.59;5247342;28;20027;-73
2024/03/08 06:48:19;;;;;;;51.60;21.65;;;;;;;3.52;100.00;101233.22;5246498;28;20647;-73
2024/03/08 06:50:49;;;;;;;56.42;24.02;;;;;;;3.64;100.00;101232.31;5247575;28;20016;-73
2024/03/08 06:53:20;;;;;;;44.47;20.65;;;;;;;3.75;100.00;101226.19;5246766;28;20023;-73
2024/03/08 06:55:50;;;;;;;51.40;23.00;;;;;;;3.95;100.00;101222.06;5246889;28;20497;-73
2024/03/08 06:58:21;;;;;;;47.50;21.23;;;;;;;4.14;100.00;101233.00;5232574;28;20036;-74
2024/03/08 07:00:52;;;;;;;50.92;21.77;;;;;;;4.35;100.00;101226.06;5244506;28;20535;-73
2024/03/08 07:03:22;;;;;;;52.88;23.30;;;;;;;4.55;100.00;101218.38;5244954;28;20478;-74
2024/03/08 07:05:55;;;;;;;49.08;22.60;;;;;;;4.73;100.00;101218.78;5246010;28;20073;-74
2024/03/08 07:08:26;;;;;;;51.33;22.75;;;;;;;4.83;100.00;101215.28;5242673;28;20028;-74
2024/03/08 07:10:59;;;;;;;50.53;20.83;;;;;;;4.94;100.00;101215.28;5247888;28;20067;-74
2024/03/08 07:13:29;;;;;;;44.65;20.60;;;;;;;5.13;100.00;101208.50;5242443;28;20044;-74
2024/03/08 07:16:00;;;;;;;50.30;21.27;;;;;;;5.43;100.00;101203.38;5245914;28;20505;-74
2024/03/08 07:18:31;;;;;;;50.30;21.08;;;;;;;5.71;100.00;101201.97;5249385;28;20091;-74
2024/03/08 07:21:03;;;;;;;44.45;20.35;;;;;;;6.05;100.00;101201.03;5246505;28;20181;-74
2024/03/08 07:23:46;;;;;;;40.28;20.02;;;;;;;6.35;100.00;101195.78;5246397;28;20032;-74
2024/03/08 07:26:18;;;;;;;42.15;19.77;;;;;;;6.68;100.00;101186.72;5250482;28;20051;-74
2024/03/08 07:28:48;;;;;;;42.22;20.00;;;;;;;6.96;100.00;101184.31;5244501;28;20036;-74
2024/03/08 07:33:55;;;;;;;42.15;21.10;;;;;;;7.34;100.00;101186.25;5245945;28;20024;-74
2024/03/08 07:36:26;;;;;;;39.72;19.50;;;;;;;7.36;100.00;101176.28;5247824;28;20032;-73
2024/03/08 07:38:57;;;;;;;45.22;20.23;;;;;;;7.39;100.00;101180.50;5243969;28;20028;-74
2024/03/08 07:41:29;;;;;;;38.90;19.20;;;;;;;7.56;100.00;101173.63;5246221;28;20028;-74
2024/03/08 07:44:03;;;;;;;43.28;18.55;;;;;;;7.81;100.00;101170.41;5247933;28;20058;-74
2024/03/08 07:46:34;;;;;;;35.13;17.85;;;;;;;7.81;100.00;101167.75;5245709;28;20889;-75
2024/03/08 07:49:04;;;;;;;36.38;18.40;;;;;;;8.02;100.00;101171.09;5245185;28;20036;-74
2024/03/08 07:51:38;;;;;;;32.38;16.88;;;;;;;8.09;100.00;101170.56;5243662;28;20021;-75
2024/03/08 07:54:09;;;;;;;35.40;17.63;;;;;;;8.31;100.00;101172.91;5242298;28;20082;-74
2024/03/08 07:56:39;;;;;;;39.17;18.65;;;;;;;8.31;100.00;101173.75;5241760;28;20024;-74
2024/03/08 07:59:11;;;;;;;38.08;18.67;;;;;;;8.51;100.00;101166.56;5244091;28;20130;-74
2024/03/08 08:01:43;;;;;;;34.90;16.92;;;;;;;8.66;100.00;101166.94;5245593;28;20561;-74
2024/03/08 08:04:17;;;;;;;35.65;17.90;;;;;;;8.66;100.00;101166.09;5250754;28;20025;-74
2024/03/08 08:06:48;;;;;;;37.22;17.85;;;;;;;8.74;100.00;101172.41;5243869;28;20421;-74
2024/03/08 08:09:28;;;;;;;35.95;17.65;;;;;;;8.86;100.00;101166.88;5242100;28;20020;-74
2024/03/08 08:11:58;;;;;;;35.97;17.52;;;;;;;8.93;100.00;101158.09;5245867;28;20500;-74
2024/03/08 08:14:29;;;;;;;40.17;18.83;;;;;;;9.18;100.00;101150.38;5244432;28;20024;-75
2024/03/08 08:17:03;;;;;;;36.75;18.58;;;;;;;9.16;100.00;101153.19;5244601;28;20583;-75
2024/03/08 08:19:35;;;;;;;38.83;18.40;;;;;;;9.14;100.00;101155.19;5242097;28;20555;-72
2024/03/08 08:22:08;;;;;;;34.60;17.50;;;;;;;9.53;100.00;101145.06;5245986;28;20059;-75
2024/03/08 08:24:40;;;;;;;48.03;18.00;;;;;;;9.52;100.00;101137.19;5247158;28;20089;-75
2024/03/08 08:27:11;;;;;;;33.65;17.83;;;;;;;9.67;100.00;101138.34;5244601;28;20022;-75
2024/03/08 08:29:43;;;;;;;33.97;17.73;;;;;;;9.87;100.00;101125.63;5244877;28;20029;-75
2024/03/08 08:32:13;;;;;;;36.75;18.23;;;;;;;10.02;100.00;101124.06;5248752;28;20020;-75
2024/03/08 08:34:44;;;;;;;32.58;17.67;;;;;;;10.14;100.00;101113.94;5244220;28;20115;-75
2024/03/08 08:37:16;;;;;;;33.30;16.85;;;;;;;10.42;100.00;101113.81;5244857;28;20097;-75
2024/03/08 08:39:47;;;;;;;34.88;17.75;;;;;;;10.55;100.00;101108.84;5252030;28;20025;-75
2024/03/08 08:42:18;;;;;;;35.88;17.05;;;;;;;10.81;100.00;101109.66;5254046;28;20055;-75
2024/03/08 08:44:50;;;;;;;31.48;17.17;;;;;;;10.84;100.00;101095.91;5241685;28;20060;-74
2024/03/08 08:47:20;;;;;;;32.10;17.35;;;;;;;10.97;100.00;101108.03;5245066;28;20028;-74
2024/03/08 08:49:51;;;;;;;29.48;16.15;;;;;;;11.10;100.00;101093.16;5246818;28;20039;-73
2024/03/08 08:52:23;;;;;;;34.70;17.95;;;;;;;11.29;100.00;101097.38;5246034;28;20033;-73
2024/03/08 08:54:53;;;;;;;32.17;16.52;;;;;;;11.50;100.00;101101.47;5246539;28;20115;-73
2024/03/08 08:57:24;;;;;;;37.58;16.42;;;;;;;11.59;100.00;101092.38;5243668;28;20024;-74
2024/03/08 08:59:55;;;;;;;32.95;16.63;;;;;;;11.60;100.00;101089.53;5244828;28;20032;-74
2024/03/08 09:02:26;;;;;;;33.35;16.98;;;;;;;11.61;100.00;101085.84;5248803;28;20039;-74
2024/03/08 09:04:56;;;;;;;31.88;17.02;;;;;;;11.71;100.00;101084.84;5238018;28;20449;-74
2024/03/08 09:07:27;;;;;;;28.55;15.88;;;;;;;12.01;100.00;101091.41;5242166;28;20028;-74
2024/03/08 09:09:58;;;;;;;29.38;15.65;;;;;;;12.00;100.00;101087.03;5244023;28;20031;-74
2024/03/08 09:12:28;;;;;;;28.15;15.88;;;;;;;12.04;100.00;101083.81;5242812;28;20069;-74
2024/03/08 09:14:59;;;;;;;31.73;15.93;;;;;;;12.24;100.00;101080.78;5250462;28;20028;-74
2024/03/08 09:17:30;;;;;;;34.40;16.10;;;;;;;12.04;100.00;101072.22;5247701;28;20028;-74
2024/03/08 09:20:00;;;;;;;32.28;15.80;;;;;;;12.17;100.00;101065.31;5240973;28;20021;-74
2024/03/08 09:22:30;;;;;;;28.83;15.82;;;;;;;12.43;100.00;101059.69;5247514;28;20024;-74
2024/03/08 09:25:01;;;;;;;27.33;15.43;;;;;;;12.54;100.00;101054.97;5259987;28;20036;-74
2024/03/08 09:27:32;;;;;;;30.45;15.85;;;;;;;12.41;100.00;101053.66;5246100;28;20103;-74
2024/03/08 09:30:04;;;;;;;30.92;15.80;;;;;;;12.70;100.00;101044.97;5249653;28;20028;-74
2024/03/08 09:32:34;;;;;;;33.17;15.60;;;;;;;12.74;100.00;101039.22;5243460;28;20036;-74
2024/03/08 09:35:07;;;;;;;33.78;16.20;;;;;;;12.97;100.00;101026.66;5250096;28;20028;-74
2024/03/08 09:37:37;;;;;;;28.25;15.15;;;;;;;13.06;100.00;101032.84;5247062;28;20157;-74
2024/03/08 09:40:09;;;;;;;28.48;15.27;;;;;;;13.01;100.00;101028.00;5244198;28;20028;-74
2024/03/08 09:42:40;;;;;;;30.55;15.23;;;;;;;13.24;100.00;101017.25;5246794;28;20545;-74
2024/03/08 09:45:12;;;;;;;28.35;14.40;;;;;;;12.99;100.00;101015.69;5249003;28;20516;-73
2024/03/08 09:47:43;;;;;;;28.10;14.50;;;;;;;12.87;100.00;101015.28;5248334;28;20017;-74
2024/03/08 09:50:15;;;;;;;25.27;14.15;;;;;;;12.75;100.00;101008.59;5244921;28;20584;-74
2024/03/08 09:52:48;;;;;;;27.92;14.30;;;;;;;12.74;100.00;101004.22;5246217;28;20016;-74
2024/03/08 09:55:22;;;;;;;31.27;14.48;;;;;;;12.79;100.00;101001.84;5243701;28;20032;-74
2024/03/08 10:00:43;;;;;;;27.98;14.00;;;;;;;12.86;100.00;101005.53;5247304;28;20035;-74
2024/03/08 10:03:15;;;;;;;28.42;14.93;;;;;;;12.78;100.00;100989.41;5243408;28;20107;-74
2024/03/08 10:05:46;;;;;;;28.30;13.80;;;;;;;12.73;100.00;100992.63;5246317;28;20107;-74
2024/03/08 10:08:16;;;;;;;25.20;13.98;;;;;;;12.59;100.00;100988.81;5246438;28;20039;-74
2024/03/08 10:10:47;;;;;;;27.15;14.15;;;;;;;12.72;100.00;100980.19;5243296;28;20020;-74
2024/03/08 10:13:19;;;;;;;27.27;14.73;;;;;;;12.83;100.00;100978.94;5250078;28;20494;-74
2024/03/08 10:15:51;;;;;;;26.52;14.43;;;;;;;12.93;100.00;100976.84;5245761;28;20093;-74
2024/03/08 10:18:22;;;;;;;25.80;14.15;;;;;;;12.77;100.00;100964.34;5251580;28;20039;-74
2024/03/08 10:21:10;;;;;;;30.20;14.88;;;;;;;12.66;100.00;100965.59;5251485;28;20097;-74
2024/03/08 10:23:43;;;;;;;28.67;14.48;;;;;;;12.66;100.00;100957.53;5253060;28;20099;-74
2024/03/08 10:26:16;;;;;;;25.45;13.48;;;;;;;12.66;100.00;100959.38;5258992;28;20028;-74
2024/03/08 10:28:48;;;;;;;26.55;13.82;;;;;;;12.70;100.00;100957.97;5243944;28;20070;-74
2024/03/08 10:31:20;;;;;;;29.95;14.77;;;;;;;12.68;100.00;100960.84;5248964;28;20043;-74
2024/03/08 10:33:50;;;;;;;31.52;14.45;;;;;;;12.51;100.00;100951.22;5251411;28;20055;-75
2024/03/08 10:36:21;;;;;;;31.58;14.07;;;;;;;12.47;100.00;100944.50;5250974;28;20031;-74
2024/03/08 10:38:53;;;;;;;30.20;14.07;;;;;;;12.46;100.00;100940.13;5247451;28;20029;-74
2024/03/08 10:41:25;;;;;;;27.58;13.52;;;;;;;12.46;100.00;100937.44;5249535;28;20570;-74
2024/03/08 10:44:24;;;;;;;30.75;14.77;;;;;;;12.42;100.00;100934.25;5254973;28;20028;-74
2024/03/08 10:47:05;;;;;;;27.85;14.77;;;;;;;12.47;100.00;100924.84;5253903;28;20031;-74
2024/03/08 10:49:47;;;;;;;28.50;13.95;;;;;;;12.65;100.00;100917.31;5245699;28;20036;-74
2024/03/08 10:52:18;;;;;;;25.88;12.90;;;;;;;12.48;100.00;100910.34;5240082;28;20025;-75
2024/03/08 10:54:51;;;;;;;28.13;13.35;;;;;;;12.49;100.00;100910.16;5242424;28;20033;-75
2024/03/08 10:57:23;;;;;;;30.30;13.60;;;;;;;12.51;100.00;100910.00;5250611;28;20028;-75
2024/03/08 10:59:55;;;;;;;27.55;13.63;;;;;;;12.55;100.00;100909.47;5254305;28;20389;-75
2024/03/08 11:02:27;;;;;;;32.67;14.07;;;;;;;12.62;100.00;100905.06;5249477;28;20032;-75
2024/03/08 11:04:57;;;;;;;27.02;14.13;;;;;;;12.86;100.00;100900.53;5246183;28;20029;-75
2024/03/08 11:07:28;;;;;;;25.55;13.75;;;;;;;12.88;100.00;100903.88;5248882;28;20032;-74
2024/03/08 11:09:59;;;;;;;26.73;14.00;;;;;;;12.82;100.00;100893.81;5249368;28;20521;-75
2024/03/08 11:12:36;;;;;;;25.30;13.23;;;;;;;12.95;100.00;100894.03;5246762;28;20027;-75
2024/03/08 11:15:13;;;;;;;27.13;13.20;;;;;;;12.97;100.00;100900.09;5254675;28;20024;-75
2024/03/08 11:17:47;;;;;;;26.63;13.80;;;;;;;12.98;100.00;100893.69;5247387;28;20072;-75
2024/03/08 11:20:20;;;;;;;25.92;13.57;;;;;;;13.03;100.00;100890.44;5247719;28;20024;-75
2024/03/08 11:23:00;;;;;;;23.27;13.35;;;;;;;12.99;100.00;100889.13;5249727;28;20036;-75
2024/03/08 11:25:37;;;;;;;24.58;13.02;;;;;;;13.03;100.00;100885.91;5251526;28;20123;-75
2024/03/08 11:28:18;;;;;;;22.63;12.80;;;;;;;13.00;100.00;100888.09;5251946;28;20400;-75
2024/03/08 11:31:15;;;;;;;24.80;12.70;;;;;;;13.10;100.00;100878.78;5243933;28;20056;-75